Gwyme, Virginia
Current Conditions -  °F | °C
As of 4:55 AM on Friday 28 Nov 2014 (Local Time) from KW75 Reporting Station
Clear Clear  
Wind Chill: 25°   Ceiling: Unl
Heat Index: 35°   Visibility: 10mi
Dew Point: 23°   Wind: 14mph
Humidity: 63%   Direction: 330°NNW
Pressure: 30.24"   Gusts: 20mph
Location:  37.4982°N, 76.2873°W
Report Text: KW75 280955Z AUTO 33012G17KT 10SM CLR 02/M05 A3024 RMK AO1 T00151049
Loading
Personal Weather Stations






























Interactive Weather Map New forecast layout! Learn more

10-Day Weather Forecast

Advertisements
Track Severe Weather on mobile